Flight Track Log - Related Links

Times and Time Zones

All times are in EST time to prevent confusion due to time zone crossing. See the UCA3596 flight status page for this flight to view local times or setup timezone preferences in your user account.

Time Position Orientation Groundspeed Altitude Reporting Facility
EST Latitude Longitude Course Direction KTS MPH feet Rate Location/Type
Mon 01:28:00 PM 40.2061 -76.9065 19° North  Level Estimated
Mon 01:29:00 PM 40.2564 -76.8840 19° North  Level Estimated
Mon 01:30:00 PM 40.3067 -76.8614 19° North  Level Estimated
Mon 01:31:00 PM 40.3570 -76.8388 19° North  Level Estimated
Mon 01:32:00 PM 40.4073 -76.8161 19° North  Level Estimated
Mon 01:33:00 PM 40.4575 -76.7934 19° North  Level Estimated
Mon 01:34:00 PM 40.5078 -76.7707 19° North  Level Estimated
Mon 01:35:00 PM 40.5581 -76.7479 19° North  Level Estimated
Mon 01:36:00 PM 40.6083 -76.7251 19° North  Level Estimated
Mon 01:37:00 PM 40.6586 -76.7023 19° North  Level Estimated
Mon 01:38:00 PM 40.7089 -76.6794 19° North  Level Estimated
Mon 01:39:00 PM 40.7591 -76.6565 19° North  Level Estimated
Mon 01:40:00 PM 40.8093 -76.6336 19° North  Level Estimated
Mon 01:41:00 PM 40.8596 -76.6106 19° North  Level Estimated
Mon 01:42:00 PM 40.9098 -76.5876 19° North  Level Estimated
Mon 01:43:00 PM 40.9600 -76.5645 19° North  Level Estimated
Mon 01:44:00 PM 41.0103 -76.5415 19° North  Level Estimated
Mon 01:45:00 PM 41.0605 -76.5183 19° North  Level Estimated
Mon 01:46:00 PM 41.1107 -76.4952 19° North  Level Estimated
Mon 01:47:00 PM 41.1609 -76.4720 19° North  Level Estimated
Mon 01:48:00 PM 41.2111 -76.4488 19° North  Level Estimated
Mon 01:49:00 PM 41.2613 -76.4256 19° North  Level Estimated
Mon 01:50:00 PM 41.3115 -76.4023 19° North  Level Estimated
Mon 01:51:00 PM 41.3617 -76.3789 19° North  Level Estimated
Mon 01:52:00 PM 41.4119 -76.3556 19° North  Level Estimated
Mon 01:53:00 PM 41.4621 -76.3322 19° North  Level Estimated
Mon 01:54:00 PM 41.5123 -76.3087 19° North  Level Estimated
Mon 01:55:00 PM 41.5624 -76.2853 19° North  Level Estimated
Mon 01:56:00 PM 41.6126 -76.2618 19° North  Level Estimated
Mon 01:57:00 PM 41.6628 -76.2382 19° North  Level Estimated
Mon 01:58:00 PM 41.7129 -76.2147 19° North  Level Estimated
Mon 01:59:00 PM 41.7631 -76.1910 19° North  Level Estimated
Mon 02:00:00 PM 41.8132 -76.1674 19° North  Level Estimated
Mon 02:01:00 PM 41.8634 -76.1437 19° North  Level Estimated
Mon 02:02:00 PM 41.9135 -76.1200 19° North  Level Estimated
Mon 02:03:00 PM 41.9636 -76.0962 19° North  Level Estimated
Mon 02:04:00 PM 42.0138 -76.0724 19° North  Level Estimated
Mon 02:05:00 PM 42.0639 -76.0486 19° North  Level Estimated
Mon 02:06:00 PM 42.1140 -76.0247 19° North  Level Estimated
Mon 02:07:00 PM 42.1641 -76.0008 19° North  Level Estimated
Mon 02:08:00 PM 42.2084 -75.9796 19° North  Level Estimated
Mon 02:09:00 PM 42.2084 -75.9796 35° Northeast  Level Estimated
Mon 02:10:00 PM 42.2084 -75.9796 35° Northeast  Level Estimated
Mon 02:11:00 PM 42.2084 -75.9796 35° Northeast  Level Estimated
Mon 02:12:00 PM 42.2084 -75.9796 35° Northeast  Level Estimated
Mon 02:13:00 PM 42.2084 -75.9796 35° Northeast  Level Estimated
Mon 02:14:00 PM 42.2084 -75.9796 35° Northeast  Level Estimated
Mon 02:15:00 PM 42.2084 -75.9796 35° Northeast  Level Estimated
Mon 02:16:00 PM 42.2084 -75.9796 35° Northeast  Level Estimated
Mon 02:17:00 PM 42.2084 -75.9796 35° Northeast  Level Estimated
Mon 02:18:00 PM 42.2084 -75.9796 35° Northeast  Level Estimated
Mon 02:19:00 PM 42.2084 -75.9796 35° Northeast  Level Estimated
Mon 02:20:00 PM 42.2084 -75.9796 35° Northeast  Level Estimated
Mon 02:21:00 PM 42.2084 -75.9796 35° Northeast  Level Estimated
Mon 02:22:00 PM 42.2084 -75.9796 35° Northeast  Level Estimated
Mon 02:23:00 PM 42.2084 -75.9796 35° Northeast  Level Estimated

Login

Don't have an account? Register now (free) for customized features, flight alerts, and more!